Abbottstown, Pennsylvania
Current Conditions -  °F | °C
As of 11:07 PM on Sunday 25 Jan 2015 (Local Time) from KTHV Reporting Station
Light Snow Light Snow  
Wind Chill: -2°   Ceiling: 400
Heat Index:   Visibility: 1.2mi
Dew Point:   Wind: 6mph
Humidity: 96%   Direction: 60°ENE
Pressure: 29.88"   Gusts: NA
Location:  39.89°N, 76.98°W
Report Text: KTHV 260407Z AUTO 06005KT 1 1/4SM -SN BR OVC004 01/00 A2988 RMK AO2 P0000 T00060000
Loading
Personal Weather Stations






























Interactive Weather Map New forecast layout! Learn more

10-Day Weather Forecast

Advertisements
Track Severe Weather on mobile